createdAt,value
2022-10-11T11:58:39.548Z,1395.00
2022-10-11T11:59:11.196Z,427.50
2022-10-11T11:59:41.829Z,365.62
2022-10-11T12:00:12.709Z,331.88
2022-10-11T12:00:43.418Z,309.38
2022-10-11T12:01:14.748Z,303.75
2022-10-11T12:01:44.912Z,298.12
2022-10-11T12:02:15.591Z,298.12
2022-10-11T12:02:46.291Z,298.12
2022-10-11T12:03:16.936Z,298.12
2022-10-11T12:03:47.636Z,298.12
2022-10-11T12:04:18.332Z,298.12
2022-10-11T12:04:48.944Z,303.75
2022-10-11T12:05:19.573Z,315.00
2022-10-11T12:05:50.217Z,320.62
2022-10-11T12:06:20.877Z,331.88
2022-10-11T12:07:11.407Z,354.38
2022-10-11T12:07:22.224Z,399.38
2022-10-11T12:07:53.001Z,500.62
2022-10-11T12:08:23.333Z,495.00
2022-10-11T12:08:53.970Z,680.62
2022-10-11T12:09:24.625Z,708.75
2022-10-11T12:09:55.226Z,860.62
2022-10-11T12:10:25.942Z,455.62
2022-10-11T12:10:56.733Z,360.00
2022-10-11T12:11:34.621Z,331.88
2022-10-11T12:11:58.360Z,315.00
2022-10-11T12:12:29.204Z,309.38
2022-10-11T12:12:59.950Z,303.75
2022-10-11T12:13:32.536Z,281.25
2022-10-11T12:14:01.286Z,270.00
2022-10-11T12:14:32.813Z,264.38
2022-10-11T12:15:03.754Z,258.75
2022-10-11T12:15:33.494Z,258.75
2022-10-11T12:16:04.297Z,258.75
2022-10-11T12:16:35.621Z,258.75
2022-10-11T12:17:05.757Z,253.12
2022-10-11T12:17:36.438Z,241.88
2022-10-11T12:18:07.096Z,236.25
2022-10-11T12:18:42.752Z,213.75
2022-10-11T12:19:08.927Z,202.50
2022-10-11T12:19:39.559Z,196.88
2022-10-11T12:20:10.278Z,191.25
2022-10-11T12:20:40.944Z,185.62
2022-10-11T12:21:11.572Z,180.00
2022-10-11T12:21:42.180Z,180.00
2022-10-11T12:22:12.825Z,174.38
2022-10-11T12:22:44.570Z,174.38
2022-10-11T12:23:17.819Z,174.38
2022-10-11T12:23:44.737Z,174.38
2022-10-11T12:24:15.409Z,168.75
2022-10-11T12:24:46.040Z,174.38
2022-10-11T12:25:18.706Z,174.38
2022-10-11T12:25:47.551Z,174.38
2022-10-11T12:26:18.161Z,168.75
2022-10-11T12:26:50.376Z,168.75
2022-10-11T12:27:20.150Z,163.12
2022-10-11T12:27:50.281Z,168.75
2022-10-11T12:28:21.013Z,174.38
2022-10-11T12:28:51.662Z,180.00
2022-10-11T12:29:27.428Z,185.62
2022-10-11T12:29:59.634Z,196.88
2022-10-11T12:30:24.605Z,202.50
2022-10-11T12:30:54.772Z,213.75
2022-10-11T12:31:25.406Z,230.62
2022-10-11T12:31:56.046Z,241.88
2022-10-11T12:32:26.682Z,247.50
2022-10-11T12:32:57.318Z,247.50
2022-10-11T12:33:27.966Z,258.75
2022-10-11T12:33:58.617Z,258.75
2022-10-11T12:34:30.354Z,264.38
2022-10-11T12:34:59.961Z,264.38
2022-10-11T12:35:30.765Z,258.75
2022-10-11T12:36:04.176Z,253.12
2022-10-11T12:36:32.004Z,247.50
2022-10-11T12:37:05.998Z,247.50
2022-10-11T12:37:33.358Z,247.50
2022-10-11T12:38:03.993Z,247.50
2022-10-11T12:38:34.697Z,247.50
2022-10-11T12:39:07.096Z,247.50
2022-10-11T12:39:36.264Z,253.12
2022-10-11T12:40:06.997Z,258.75
2022-10-11T12:40:40.387Z,258.75
2022-10-11T12:41:08.503Z,264.38
2022-10-11T12:41:39.129Z,270.00
2022-10-11T12:42:09.809Z,275.62
2022-10-11T12:42:40.427Z,281.25
2022-10-11T12:43:11.063Z,286.88
2022-10-11T12:43:41.725Z,298.12
2022-10-11T12:44:12.375Z,315.00
2022-10-11T12:44:43.013Z,326.25
2022-10-11T12:45:13.663Z,343.12
2022-10-11T12:45:44.352Z,354.38
2022-10-11T12:46:14.975Z,360.00
2022-10-11T12:46:45.598Z,348.75
2022-10-11T12:47:16.238Z,343.12
2022-10-11T12:47:46.881Z,343.12
2022-10-11T12:48:17.516Z,337.50
2022-10-11T12:48:48.169Z,331.88
2022-10-11T12:49:18.805Z,320.62
2022-10-11T12:49:49.450Z,315.00
2022-10-11T12:50:20.117Z,309.38
2022-10-11T12:50:50.746Z,303.75
2022-10-11T12:51:21.402Z,298.12
2022-10-11T12:51:52.034Z,292.50
2022-10-11T12:52:22.672Z,292.50
2022-10-11T12:52:53.313Z,298.12
2022-10-11T12:53:23.943Z,298.12
2022-10-11T12:54:21.597Z,303.75
2022-10-11T12:54:34.626Z,309.38
2022-10-11T12:54:55.889Z,320.62
2022-10-11T12:55:26.519Z,331.88
2022-10-11T12:55:57.168Z,343.12
2022-10-11T12:56:27.796Z,343.12
2022-10-11T12:56:58.430Z,343.12
2022-10-11T12:57:29.109Z,343.12
2022-10-11T12:57:59.745Z,343.12
2022-10-11T12:58:30.434Z,343.12
2022-10-11T12:59:01.294Z,343.12
2022-10-11T12:59:32.008Z,354.38
2022-10-11T13:00:02.669Z,360.00
2022-10-11T13:00:33.314Z,371.25
2022-10-11T13:01:03.996Z,382.50
2022-10-11T13:01:34.751Z,388.12
2022-10-11T13:02:05.410Z,405.00
2022-10-11T13:02:36.753Z,427.50
2022-10-11T13:03:06.913Z,450.00
2022-10-11T13:03:37.553Z,461.25
2022-10-11T13:04:08.387Z,483.75
2022-10-11T13:04:39.426Z,562.50
2022-10-11T13:05:09.584Z,562.50
2022-10-11T13:05:44.635Z,646.88
2022-10-11T13:06:11.746Z,663.75
2022-10-11T13:06:42.132Z,635.62
2022-10-11T13:07:12.854Z,658.12
2022-10-11T13:07:43.558Z,635.62
2022-10-11T13:08:14.209Z,720.00
2022-10-11T13:08:44.855Z,888.75
2022-10-11T13:09:16.245Z,1130.62
2022-10-11T13:09:49.081Z,821.25
2022-10-11T13:10:17.048Z,742.50
2022-10-11T13:10:49.353Z,534.38
2022-10-11T13:11:18.562Z,556.88
2022-10-11T13:11:49.220Z,506.25
2022-10-11T13:12:19.875Z,461.25
2022-10-11T13:12:50.557Z,461.25
2022-10-11T13:13:21.251Z,461.25
2022-10-11T13:13:51.919Z,427.50
2022-10-11T13:14:22.571Z,427.50
2022-10-11T13:14:53.246Z,416.25
2022-10-11T13:15:23.899Z,410.62
2022-10-11T13:15:54.580Z,405.00
2022-10-11T13:16:25.272Z,410.62
2022-10-11T13:16:55.918Z,416.25
2022-10-11T13:17:26.560Z,433.12
2022-10-11T13:17:57.212Z,450.00
2022-10-11T13:18:27.892Z,466.88
2022-10-11T13:18:58.558Z,472.50
2022-10-11T13:19:29.259Z,478.12
2022-10-11T13:19:59.960Z,478.12
2022-10-11T13:20:30.626Z,506.25
2022-10-11T13:21:01.283Z,545.62
2022-10-11T13:21:31.924Z,568.12
2022-10-11T13:22:02.586Z,601.88
2022-10-11T13:22:36.171Z,613.12
2022-10-11T13:23:03.775Z,613.12
2022-10-11T13:23:35.523Z,641.25
2022-10-11T13:25:34.669Z,646.88
2022-10-11T13:26:06.303Z,630.00
2022-10-11T13:26:36.946Z,652.50
2022-10-11T13:27:07.604Z,658.12
2022-10-11T13:27:38.249Z,669.38
2022-10-11T13:28:08.940Z,658.12
2022-10-11T13:28:39.634Z,646.88
2022-10-11T13:29:10.242Z,663.75
2022-10-11T13:29:40.925Z,669.38
2022-10-11T13:30:11.576Z,675.00
2022-10-11T13:30:42.233Z,686.25
2022-10-11T13:31:12.903Z,720.00
2022-10-11T13:31:43.523Z,748.12
2022-10-11T13:32:14.174Z,781.88
2022-10-11T13:32:44.825Z,804.38
2022-10-11T13:33:15.496Z,843.75
2022-10-11T13:33:46.137Z,815.62
2022-10-11T13:34:20.983Z,855.00
2022-10-11T13:34:47.414Z,1001.25
2022-10-11T13:35:21.009Z,1029.38
2022-10-11T13:35:48.617Z,1074.38
2022-10-11T13:36:19.252Z,1141.88
2022-10-11T13:36:49.920Z,1141.88
2022-10-11T13:37:20.564Z,1170.00
2022-10-11T13:37:51.195Z,1119.38
2022-10-11T13:38:21.839Z,1063.12
2022-10-11T13:38:52.483Z,1074.38
2022-10-11T13:39:27.106Z,1096.88
2022-10-11T13:39:53.719Z,1074.38
2022-10-11T13:40:24.387Z,1080.00
2022-10-11T13:40:55.054Z,1046.25
2022-10-11T13:41:25.713Z,1040.62
2022-10-11T13:41:56.356Z,1018.12
2022-10-11T13:42:26.991Z,877.50
2022-10-11T13:42:57.627Z,888.75
2022-10-11T13:43:28.240Z,916.88
2022-10-11T13:43:58.893Z,928.12
2022-10-11T13:44:29.533Z,950.62
2022-10-11T13:45:00.201Z,984.38
2022-10-11T13:45:30.854Z,1040.62
2022-10-11T13:46:01.487Z,1057.50
2022-10-11T13:46:32.136Z,1125.00
2022-10-11T13:47:02.775Z,1186.88
2022-10-11T13:47:33.386Z,1305.00
2022-10-11T13:48:04.025Z,1378.12
2022-10-11T13:48:34.682Z,1411.88
2022-10-11T13:49:05.329Z,1468.12
2022-10-11T13:49:36.051Z,1468.12
2022-10-11T13:50:06.728Z,1473.75
2022-10-11T13:50:37.347Z,1451.25
2022-10-11T13:51:07.988Z,1378.12
2022-10-11T13:51:38.619Z,1445.62
2022-10-11T13:52:09.268Z,1428.75
2022-10-11T13:52:39.911Z,1479.38
2022-10-11T13:53:10.546Z,1541.25
2022-10-11T13:53:41.165Z,1524.38
2022-10-11T13:54:13.915Z,1496.25
2022-10-11T13:54:42.688Z,1558.12
2022-10-11T13:55:13.336Z,1580.62
2022-10-11T13:55:43.977Z,1614.38
2022-10-11T13:56:14.622Z,1541.25
2022-10-11T13:56:45.267Z,1513.12
2022-10-11T13:57:15.917Z,1552.50
2022-10-11T13:57:46.566Z,1620.00
2022-10-11T13:58:18.959Z,1642.50
2022-10-11T13:58:47.797Z,1665.00
2022-10-11T13:59:18.485Z,1659.38
2022-10-11T13:59:49.123Z,1620.00
2022-10-11T14:00:19.768Z,1558.12
2022-10-11T14:00:50.412Z,1462.50
2022-10-11T14:01:21.126Z,1518.75
2022-10-11T14:01:51.848Z,1513.12
2022-10-11T14:02:22.488Z,1507.50
2022-10-11T14:02:53.105Z,1490.62
2022-10-11T14:03:23.857Z,1485.00
2022-10-11T14:03:54.503Z,1462.50
2022-10-11T14:04:29.477Z,1344.38
2022-10-11T14:04:55.763Z,1276.88
2022-10-11T14:05:26.420Z,1265.62
2022-10-11T14:05:57.091Z,1254.38
2022-10-11T14:06:27.742Z,1260.00
2022-10-11T14:06:58.375Z,1175.62
2022-10-11T14:07:28.999Z,1125.00
2022-10-11T14:07:59.621Z,1080.00
2022-10-11T14:08:30.255Z,1057.50
2022-10-11T14:09:01.907Z,1096.88
2022-10-11T14:09:31.808Z,1046.25
2022-10-11T14:10:02.491Z,900.00
2022-10-11T14:10:33.295Z,736.88
2022-10-11T14:11:06.480Z,556.88
2022-10-11T14:11:34.908Z,416.25
2022-10-11T14:12:05.549Z,393.75
2022-10-11T14:12:36.193Z,348.75
2022-10-11T14:13:06.824Z,326.25
2022-10-11T14:13:37.505Z,298.12
2022-10-11T14:14:08.157Z,286.88
2022-10-11T14:14:40.002Z,275.62
2022-10-11T14:15:10.575Z,270.00
2022-10-11T14:15:40.198Z,264.38
2022-10-11T14:16:10.853Z,270.00
2022-10-11T14:16:41.493Z,286.88
2022-10-11T14:17:12.137Z,303.75
2022-10-11T14:17:42.779Z,331.88
2022-10-11T14:18:13.441Z,421.88
2022-10-11T14:18:44.088Z,770.62
2022-10-11T14:19:14.739Z,939.38
2022-10-11T14:19:45.413Z,916.88
2022-10-11T14:20:16.049Z,877.50
2022-10-11T14:20:46.719Z,916.88
2022-10-11T14:21:17.395Z,922.50
2022-10-11T14:21:48.094Z,933.75
2022-10-11T14:22:18.753Z,945.00
2022-10-11T14:22:49.614Z,956.25
2022-10-11T14:23:20.222Z,849.38
2022-10-11T14:23:50.858Z,759.38
2022-10-11T14:24:21.506Z,770.62
2022-10-11T14:24:52.144Z,663.75
2022-10-11T14:25:22.778Z,388.12
2022-10-11T14:25:53.435Z,315.00
2022-10-11T14:26:24.148Z,286.88
2022-10-11T14:26:54.808Z,275.62
2022-10-11T14:27:25.439Z,264.38
2022-10-11T14:27:56.079Z,258.75
2022-10-11T14:28:26.811Z,258.75
2022-10-11T14:28:57.502Z,258.75
2022-10-11T14:29:28.162Z,258.75
2022-10-11T14:30:25.073Z,253.12
2022-10-11T14:30:30.900Z,253.12
2022-10-11T14:31:00.083Z,258.75
2022-10-11T14:31:30.742Z,264.38
2022-10-11T14:32:01.389Z,264.38
2022-10-11T14:32:32.078Z,264.38
2022-10-11T14:33:02.812Z,264.38
2022-10-11T14:33:33.458Z,270.00
2022-10-11T14:34:04.129Z,281.25
2022-10-11T14:34:34.786Z,292.50
2022-10-11T14:35:05.435Z,298.12
2022-10-11T14:35:36.115Z,320.62
2022-10-11T14:36:07.113Z,320.62
2022-10-11T14:36:37.522Z,298.12
2022-10-11T14:37:08.167Z,298.12
2022-10-11T14:37:38.808Z,292.50
2022-10-11T14:38:09.461Z,286.88
2022-10-11T14:38:40.270Z,292.50
2022-10-11T14:39:10.957Z,292.50
2022-10-11T14:39:41.587Z,511.88
2022-10-11T14:40:12.271Z,534.38
2022-10-11T14:40:42.951Z,540.00
2022-10-11T14:41:13.605Z,551.25
2022-10-11T14:41:44.246Z,568.12
2022-10-11T14:42:14.939Z,573.75
2022-10-11T14:42:45.563Z,556.88
2022-10-11T14:43:16.210Z,585.00
2022-10-11T14:43:46.911Z,590.62
2022-10-11T14:44:18.411Z,579.38
2022-10-11T14:44:48.041Z,556.88
2022-10-11T14:45:18.707Z,545.62
2022-10-11T14:45:49.878Z,551.25
2022-10-11T14:46:20.076Z,556.88
2022-10-11T14:46:54.057Z,579.38
2022-10-11T14:47:21.613Z,573.75
2022-10-11T14:47:52.245Z,556.88
2022-10-11T14:48:42.912Z,540.00
2022-10-11T14:48:58.625Z,461.25
2022-10-11T14:49:24.257Z,466.88
2022-10-11T14:49:54.911Z,466.88
2022-10-11T14:50:25.557Z,495.00
2022-10-11T14:50:56.212Z,500.62
2022-10-11T14:51:26.866Z,540.00
2022-10-11T14:51:58.267Z,545.62
2022-10-11T14:52:32.366Z,523.12
2022-10-11T14:52:59.012Z,450.00
2022-10-11T14:53:29.695Z,399.38
2022-10-11T14:54:00.357Z,517.50
2022-10-11T14:54:30.993Z,500.62
2022-10-11T14:55:01.670Z,382.50
2022-10-11T14:55:32.308Z,376.88
2022-10-11T14:56:03.216Z,196.88
2022-10-11T14:56:33.611Z,163.12
2022-10-11T14:57:04.274Z,151.88
2022-10-11T14:57:34.944Z,146.25
2022-10-11T14:58:05.580Z,140.62
2022-10-11T14:58:36.379Z,140.62
2022-10-11T14:59:06.995Z,140.62
2022-10-11T14:59:37.638Z,135.00
2022-10-11T15:00:08.287Z,129.38
2022-10-11T15:00:38.941Z,123.75
2022-10-11T15:01:09.610Z,123.75
2022-10-11T15:01:40.382Z,118.12
2022-10-11T15:02:10.991Z,118.12
2022-10-11T15:02:41.833Z,106.88
2022-10-11T15:03:12.442Z,101.25
2022-10-11T15:03:43.087Z,95.62
2022-10-11T15:04:13.742Z,95.62
2022-10-11T15:04:44.404Z,90.00
2022-10-11T15:05:15.030Z,90.00
2022-10-11T15:05:45.826Z,84.38
2022-10-11T15:06:16.466Z,84.38
2022-10-11T15:06:47.879Z,78.75
2022-10-11T15:07:18.020Z,78.75
2022-10-11T15:07:48.674Z,73.12
2022-10-11T15:08:19.289Z,73.12
2022-10-11T15:08:49.934Z,73.12
2022-10-11T15:09:20.572Z,73.12
2022-10-11T15:09:51.229Z,73.12
2022-10-11T15:10:21.869Z,73.12
2022-10-11T15:10:52.571Z,73.12
2022-10-11T15:11:23.219Z,67.50
2022-10-11T15:11:53.884Z,67.50
2022-10-11T15:12:24.619Z,61.88
2022-10-11T15:12:55.259Z,61.88
2022-10-11T15:13:25.916Z,56.25
2022-10-11T15:13:56.578Z,56.25
2022-10-11T15:14:35.745Z,56.25
2022-10-11T15:14:57.954Z,56.25
2022-10-11T15:15:28.858Z,50.62
2022-10-11T15:15:59.638Z,50.62
2022-10-11T15:16:31.083Z,50.62
2022-10-11T15:17:01.424Z,50.62
2022-10-11T15:17:31.586Z,50.62
2022-10-11T15:18:02.273Z,50.62
2022-10-11T15:18:32.884Z,50.62
2022-10-11T15:19:03.518Z,50.62
2022-10-11T15:19:34.178Z,50.62
2022-10-11T15:20:04.816Z,50.62
2022-10-11T15:20:35.463Z,50.62
2022-10-11T15:21:06.130Z,50.62
2022-10-11T15:21:36.781Z,56.25
2022-10-11T15:22:07.801Z,56.25
2022-10-11T15:22:38.044Z,61.88
2022-10-11T15:23:08.682Z,61.88
2022-10-11T15:23:39.320Z,61.88
2022-10-11T15:24:10.881Z,61.88
2022-10-11T15:24:40.528Z,67.50
2022-10-11T15:25:11.183Z,67.50
2022-10-11T15:25:41.823Z,73.12
2022-10-11T15:26:12.449Z,73.12
2022-10-11T15:26:43.091Z,73.12
2022-10-11T15:27:13.738Z,78.75
2022-10-11T15:27:44.381Z,78.75
2022-10-11T15:28:15.023Z,73.12
2022-10-11T15:28:46.213Z,78.75
2022-10-11T15:29:16.818Z,78.75
2022-10-11T15:29:46.914Z,73.12
2022-10-11T15:30:17.546Z,78.75
2022-10-11T15:30:48.210Z,73.12
2022-10-11T15:31:18.891Z,73.12
2022-10-11T15:31:49.567Z,67.50
2022-10-11T15:32:20.193Z,67.50
2022-10-11T15:32:50.852Z,61.88
2022-10-11T15:33:21.488Z,61.88
2022-10-11T15:33:52.121Z,56.25
2022-10-11T15:34:22.866Z,56.25
2022-10-11T15:34:53.542Z,61.88
2022-10-11T15:35:24.183Z,61.88
2022-10-11T15:35:54.824Z,61.88
2022-10-11T15:36:25.462Z,56.25
2022-10-11T15:36:56.109Z,56.25
2022-10-11T15:37:26.787Z,61.88
2022-10-11T15:37:57.488Z,61.88
2022-10-11T15:38:28.140Z,61.88
2022-10-11T15:38:58.736Z,61.88
2022-10-11T15:39:29.396Z,61.88
2022-10-11T15:40:00.189Z,61.88
2022-10-11T15:40:30.939Z,61.88
2022-10-11T15:41:01.684Z,61.88
2022-10-11T15:41:33.036Z,61.88
2022-10-11T15:42:03.555Z,61.88
2022-10-11T15:42:35.174Z,61.88
2022-10-11T15:43:04.884Z,61.88
2022-10-11T15:43:35.729Z,61.88
2022-10-11T15:44:06.381Z,56.25
2022-10-11T15:44:37.027Z,56.25
2022-10-11T15:45:07.722Z,56.25
2022-10-11T15:45:38.399Z,56.25
2022-10-11T15:46:09.508Z,56.25
2022-10-11T15:46:39.883Z,56.25
2022-10-11T15:47:10.539Z,56.25
2022-10-11T15:47:41.200Z,56.25
2022-10-11T15:48:11.848Z,56.25
2022-10-11T15:48:42.481Z,56.25
2022-10-11T15:49:13.106Z,56.25
2022-10-11T15:49:43.742Z,56.25
2022-10-11T15:50:14.373Z,56.25
2022-10-11T15:50:45.041Z,56.25
2022-10-11T15:51:15.695Z,50.62
2022-10-11T15:51:46.317Z,50.62
2022-10-11T15:52:16.961Z,50.62
2022-10-11T15:52:47.614Z,45.00
2022-10-11T15:53:18.268Z,45.00
2022-10-11T15:53:48.919Z,45.00
2022-10-11T15:54:19.550Z,39.38
2022-10-11T15:54:50.193Z,39.38
2022-10-11T15:55:20.841Z,33.75
2022-10-11T15:55:51.447Z,33.75
2022-10-11T15:56:22.098Z,33.75
2022-10-11T15:56:52.760Z,28.12
2022-10-11T15:57:23.400Z,28.12
2022-10-11T15:57:54.052Z,28.12
2022-10-11T15:58:24.745Z,22.50
2022-10-11T15:58:55.394Z,22.50
2022-10-11T15:59:26.026Z,22.50
2022-10-11T15:59:56.677Z,22.50
2022-10-11T16:00:27.340Z,22.50
2022-10-11T16:00:57.994Z,22.50
2022-10-11T16:01:28.713Z,16.88
2022-10-11T16:01:59.396Z,16.88
2022-10-11T16:02:30.046Z,16.88
2022-10-11T16:03:00.699Z,16.88
2022-10-11T16:03:31.348Z,16.88
2022-10-11T16:04:02.000Z,16.88
2022-10-11T16:04:32.668Z,16.88
2022-10-11T16:05:03.308Z,16.88
2022-10-11T16:05:33.970Z,16.88
2022-10-11T16:06:05.706Z,16.88
2022-10-11T16:06:35.564Z,16.88
2022-10-11T16:07:06.230Z,16.88
2022-10-11T16:07:36.917Z,16.88
2022-10-11T16:08:07.564Z,16.88
2022-10-11T16:08:38.203Z,16.88
2022-10-11T16:09:08.863Z,16.88
2022-10-11T16:09:39.567Z,16.88
2022-10-11T16:10:10.213Z,16.88
2022-10-11T16:10:40.866Z,11.25
2022-10-11T16:11:11.509Z,11.25
2022-10-11T16:11:42.180Z,11.25
2022-10-11T16:12:12.823Z,11.25
2022-10-11T16:12:43.487Z,11.25
2022-10-11T16:13:14.184Z,11.25
2022-10-11T16:13:44.837Z,11.25
2022-10-11T16:14:15.489Z,11.25
2022-10-11T16:14:47.288Z,5.62
2022-10-11T16:15:17.076Z,5.62
2022-10-11T16:15:47.734Z,5.62
2022-10-11T16:16:18.381Z,5.62
2022-10-11T16:16:49.025Z,5.62
2022-10-11T16:17:19.663Z,5.62
2022-10-11T16:17:50.322Z,5.62
2022-10-11T16:18:21.002Z,5.62
2022-10-11T16:18:51.646Z,5.62
2022-10-11T16:19:22.279Z,5.62
2022-10-11T16:19:52.938Z,5.62
2022-10-11T16:20:23.588Z,5.62
2022-10-11T16:20:54.284Z,5.62
2022-10-11T16:21:24.892Z,5.62
2022-10-11T16:21:55.540Z,0.00
2022-10-11T16:22:26.190Z,0.00
2022-10-11T16:22:56.869Z,0.00
2022-10-11T16:23:27.531Z,0.00
2022-10-11T16:23:58.172Z,0.00
2022-10-11T16:24:28.852Z,0.00
2022-10-11T16:24:59.512Z,0.00
2022-10-11T16:25:30.169Z,0.00
2022-10-11T16:26:00.833Z,0.00
2022-10-11T16:26:31.503Z,0.00
2022-10-11T16:27:02.145Z,0.00
2022-10-11T16:27:32.803Z,0.00
2022-10-11T16:28:03.483Z,0.00
2022-10-11T16:28:34.424Z,0.00
2022-10-11T16:29:05.054Z,0.00
2022-10-11T16:29:35.895Z,0.00
2022-10-11T16:30:06.548Z,0.00
2022-10-11T16:30:37.171Z,0.00
2022-10-11T16:31:07.795Z,0.00
2022-10-11T16:31:38.459Z,0.00
2022-10-11T16:32:09.268Z,0.00
2022-10-11T16:32:40.224Z,0.00
2022-10-11T16:33:10.825Z,0.00
2022-10-11T16:33:42.485Z,0.00
2022-10-11T16:34:12.269Z,0.00
2022-10-11T16:34:43.404Z,0.00
2022-10-11T16:35:13.572Z,0.00
2022-10-11T16:35:44.227Z,0.00
2022-10-11T16:36:21.901Z,0.00
2022-10-11T16:36:50.905Z,0.00
2022-10-11T16:37:16.056Z,0.00
2022-10-11T16:37:46.689Z,0.00
2022-10-11T16:38:17.323Z,0.00
2022-10-11T16:38:47.984Z,0.00
2022-10-11T16:39:19.488Z,0.00
2022-10-11T16:39:50.363Z,0.00
2022-10-11T16:40:26.796Z,0.00
2022-10-11T16:40:50.931Z,0.00
2022-10-11T16:41:21.579Z,0.00
2022-10-11T16:41:52.207Z,0.00
2022-10-11T16:42:22.844Z,0.00
2022-10-11T16:42:53.474Z,0.00
2022-10-11T16:43:24.907Z,0.00
2022-10-11T16:43:55.093Z,0.00
2022-10-11T16:44:25.900Z,0.00
2022-10-11T16:44:56.521Z,0.00
2022-10-11T16:45:27.158Z,0.00
2022-10-11T16:45:57.799Z,0.00
2022-10-11T16:46:28.435Z,0.00
2022-10-11T16:46:59.250Z,0.00
2022-10-11T16:47:29.841Z,0.00
2022-10-11T16:48:00.474Z,0.00
2022-10-11T16:48:31.114Z,0.00
2022-10-11T16:49:01.766Z,0.00
2022-10-11T16:49:32.564Z,0.00
2022-10-11T16:50:03.271Z,0.00
2022-10-11T16:50:39.066Z,0.00
2022-10-11T16:51:05.305Z,0.00
2022-10-11T16:51:35.444Z,0.00
2022-10-11T16:52:06.077Z,0.00
2022-10-11T16:52:36.707Z,0.00
2022-10-11T16:53:07.337Z,0.00
2022-10-11T16:53:39.641Z,0.00
2022-10-11T16:54:08.743Z,0.00
2022-10-11T16:54:39.352Z,0.00
2022-10-11T16:55:10.009Z,0.00
2022-10-11T16:55:40.846Z,0.00
2022-10-11T16:56:11.467Z,0.00
2022-10-11T16:56:42.085Z,0.00
2022-10-11T16:57:12.754Z,0.00
2022-10-11T16:57:45.500Z,0.00
2022-10-11T16:58:15.407Z,0.00
2022-10-11T16:58:45.954Z,0.00
2022-10-11T16:59:15.567Z,0.00
2022-10-11T16:59:46.329Z,0.00
2022-10-11T17:00:16.990Z,0.00
2022-10-11T17:00:48.386Z,0.00
2022-10-11T17:01:18.539Z,0.00
2022-10-11T17:01:49.337Z,0.00
2022-10-11T17:02:19.957Z,0.00
2022-10-11T17:02:50.599Z,0.00
2022-10-11T17:03:21.238Z,0.00
2022-10-11T17:03:51.897Z,0.00
2022-10-11T17:04:25.212Z,0.00
2022-10-11T17:04:53.357Z,0.00
2022-10-11T17:05:23.994Z,0.00
2022-10-11T17:05:54.623Z,0.00
2022-10-11T17:06:25.262Z,0.00
2022-10-11T17:06:55.897Z,0.00
2022-10-11T17:07:26.698Z,0.00
2022-10-11T17:07:57.340Z,0.00
2022-10-11T17:08:27.995Z,0.00
2022-10-11T17:08:58.632Z,0.00
2022-10-11T17:09:29.399Z,0.00
2022-10-11T17:10:00.087Z,0.00
2022-10-11T17:10:30.742Z,0.00
2022-10-11T17:11:01.938Z,0.00
2022-10-11T17:11:32.292Z,0.00
2022-10-11T17:12:02.937Z,0.00
2022-10-11T17:12:33.580Z,0.00
2022-10-11T17:13:04.246Z,0.00
2022-10-11T17:13:34.901Z,0.00
2022-10-11T17:14:05.553Z,0.00
2022-10-11T17:14:36.181Z,0.00
2022-10-11T17:15:06.826Z,0.00
2022-10-11T17:15:37.457Z,0.00
2022-10-11T17:16:08.724Z,0.00
2022-10-11T17:16:38.715Z,0.00
2022-10-11T17:17:09.366Z,0.00
2022-10-11T17:17:40.018Z,0.00
2022-10-11T17:18:10.650Z,0.00
2022-10-11T17:18:41.281Z,0.00
2022-10-11T17:19:11.912Z,0.00
2022-10-11T17:19:45.132Z,0.00
2022-10-11T17:20:13.189Z,0.00
2022-10-11T17:20:43.850Z,0.00
2022-10-11T17:21:14.472Z,0.00
2022-10-11T17:21:45.923Z,0.00
2022-10-11T17:22:16.067Z,0.00
2022-10-11T17:22:46.677Z,0.00
2022-10-11T17:23:17.412Z,0.00
2022-10-11T17:23:48.065Z,0.00
2022-10-11T17:24:18.707Z,0.00
2022-10-11T17:24:49.348Z,0.00
2022-10-11T17:25:19.975Z,0.00
2022-10-11T17:25:50.716Z,0.00
2022-10-11T17:26:21.457Z,0.00
2022-10-11T17:26:52.929Z,0.00
2022-10-11T17:27:23.072Z,0.00
2022-10-11T17:27:53.790Z,0.00
2022-10-11T17:28:24.466Z,0.00
2022-10-11T17:28:55.149Z,0.00
2022-10-11T17:29:25.773Z,0.00
2022-10-11T17:29:56.429Z,0.00
2022-10-11T17:30:27.069Z,0.00
2022-10-11T17:30:57.704Z,0.00
2022-10-11T17:31:28.354Z,0.00
2022-10-11T17:31:59.030Z,0.00
2022-10-11T17:32:29.740Z,0.00
2022-10-11T17:33:00.408Z,0.00
2022-10-11T17:33:31.092Z,0.00
2022-10-11T17:34:01.773Z,0.00
2022-10-11T17:34:32.414Z,0.00
2022-10-11T17:35:03.065Z,0.00
2022-10-11T17:35:33.698Z,0.00
2022-10-11T17:36:04.700Z,0.00
2022-10-11T17:36:35.049Z,0.00
2022-10-11T17:37:05.709Z,0.00
2022-10-11T17:37:36.386Z,0.00
2022-10-11T17:38:07.032Z,0.00
2022-10-11T17:38:37.685Z,0.00
2022-10-11T17:39:08.345Z,0.00
2022-10-11T17:39:38.996Z,0.00
2022-10-11T17:40:09.633Z,0.00
2022-10-11T17:40:40.262Z,0.00
2022-10-11T17:41:10.908Z,0.00
2022-10-11T17:41:41.523Z,0.00
2022-10-11T17:42:12.397Z,0.00
2022-10-11T17:42:43.029Z,0.00
2022-10-11T17:43:13.662Z,0.00
2022-10-11T17:43:44.292Z,0.00
2022-10-11T17:44:14.931Z,0.00
2022-10-11T17:44:45.579Z,0.00
2022-10-11T17:45:16.216Z,0.00
2022-10-11T17:45:46.918Z,0.00
2022-10-11T17:46:17.556Z,0.00
2022-10-11T17:46:48.217Z,0.00
2022-10-11T17:47:18.870Z,0.00
2022-10-11T17:47:49.579Z,0.00
2022-10-11T17:48:20.262Z,0.00
2022-10-11T17:48:50.859Z,0.00
2022-10-11T17:49:21.508Z,0.00
2022-10-11T17:49:52.198Z,0.00
2022-10-11T17:50:22.782Z,0.00
2022-10-11T17:50:53.417Z,0.00
2022-10-11T17:51:24.118Z,0.00
2022-10-11T17:51:54.760Z,0.00
2022-10-11T17:52:25.410Z,0.00
2022-10-11T17:52:56.053Z,0.00
2022-10-11T17:53:26.726Z,0.00
2022-10-11T17:53:57.371Z,0.00
2022-10-11T17:54:28.015Z,0.00
2022-10-11T17:54:58.642Z,0.00
2022-10-11T17:55:29.310Z,0.00
2022-10-11T17:55:59.960Z,0.00
2022-10-11T17:56:36.551Z,0.00
2022-10-11T17:57:01.413Z,0.00
2022-10-11T17:57:32.122Z,0.00
2022-10-11T17:58:02.769Z,0.00
2022-10-11T17:58:33.454Z,0.00
2022-10-11T17:59:04.127Z,0.00
2022-10-11T17:59:34.774Z,0.00
2022-10-11T18:00:05.415Z,0.00
2022-10-11T18:00:36.154Z,0.00
2022-10-11T18:01:07.129Z,0.00
2022-10-11T18:01:37.499Z,0.00
2022-10-11T18:02:08.188Z,0.00
2022-10-11T18:02:42.122Z,0.00
2022-10-11T18:03:11.547Z,0.00
2022-10-11T18:03:41.836Z,0.00
2022-10-11T18:04:11.462Z,0.00
2022-10-11T18:04:42.130Z,0.00
2022-10-11T18:05:13.555Z,0.00
2022-10-11T18:05:43.822Z,0.00
2022-10-11T18:06:14.678Z,0.00
2022-10-11T18:06:45.330Z,0.00
2022-10-11T18:07:16.052Z,0.00
2022-10-11T18:07:49.059Z,0.00
2022-10-11T18:08:17.786Z,0.00
2022-10-11T18:08:50.346Z,0.00
2022-10-11T18:09:19.938Z,0.00
2022-10-11T18:09:50.900Z,0.00
2022-10-11T18:10:20.887Z,0.00
2022-10-11T18:10:51.121Z,0.00
2022-10-11T18:11:21.776Z,0.00
2022-10-11T18:11:52.414Z,0.00
2022-10-11T18:12:23.051Z,0.00
2022-10-11T18:12:53.853Z,0.00
2022-10-11T18:13:24.518Z,0.00
2022-10-11T18:13:55.835Z,0.00
2022-10-11T18:14:27.723Z,0.00
2022-10-11T18:14:56.902Z,0.00
2022-10-11T18:15:27.558Z,0.00
2022-10-11T18:15:58.201Z,0.00
2022-10-11T18:16:29.498Z,0.00
2022-10-11T18:16:59.640Z,0.00
2022-10-11T18:17:30.270Z,0.00
2022-10-11T18:18:00.934Z,0.00
2022-10-11T18:18:31.571Z,0.00
2022-10-11T18:19:02.208Z,0.00
2022-10-11T18:19:33.828Z,0.00
2022-10-11T18:20:03.517Z,0.00
2022-10-11T18:20:34.173Z,0.00
2022-10-11T18:21:04.824Z,0.00
2022-10-11T18:21:35.467Z,0.00
2022-10-11T18:22:07.332Z,0.00
2022-10-11T18:22:37.042Z,0.00
2022-10-11T18:23:07.703Z,0.00
2022-10-11T18:23:38.365Z,0.00
2022-10-11T18:24:09.004Z,0.00
2022-10-11T18:24:39.637Z,0.00
2022-10-11T18:25:10.285Z,0.00
2022-10-11T18:25:40.926Z,0.00
2022-10-11T18:26:11.583Z,0.00
2022-10-11T18:26:42.238Z,0.00
2022-10-11T18:27:12.868Z,0.00
2022-10-11T18:27:43.502Z,0.00
2022-10-11T18:28:14.189Z,0.00
2022-10-11T18:28:44.901Z,0.00
2022-10-11T18:29:15.500Z,0.00
2022-10-11T18:29:46.140Z,0.00
2022-10-11T18:30:16.770Z,0.00
2022-10-11T18:30:47.422Z,0.00
2022-10-11T18:31:18.860Z,0.00
2022-10-11T18:31:48.683Z,0.00
2022-10-11T18:32:19.326Z,0.00